Time;durP1;ratioP1;P1;durP2;ratioP2;P2;SDS_P1;SDS_P2;PMS_P1;PMS_P2;Temp;Humidity;BMP_temperature;BMP_pressure;BME280_temperature;BME280_humidity;BME280_pressure;Samples;Min_cycle;Max_cycle;Signal;HPM_P1;HPM_P2
2022/04/16 00:00:23;;;;;;;0.10;0.10;;;;;;;;;;4972902;28;20265;-65
2022/04/16 00:02:50;;;;;;;0.00;0.00;;;;;;;;;;4992333;28;20579;-66
2022/04/16 00:05:18;;;;;;;1.13;1.13;;;;;;;;;;4978856;28;20289;-65
2022/04/16 00:08:06;;;;;;;0.00;0.00;;;;;;;;;;4975989;28;20297;-65
2022/04/16 00:10:33;;;;;;;0.00;0.00;;;;;;;;;;4976583;28;20194;-65
2022/04/16 00:13:01;;;;;;;0.10;0.10;;;;;;;;;;4973921;28;20222;-65
2022/04/16 00:15:28;;;;;;;0.00;0.00;;;;;;;;;;4956836;28;20238;-64
2022/04/16 00:17:55;;;;;;;0.00;0.00;;;;;;;;;;4956775;28;20211;-66
2022/04/16 00:20:24;;;;;;;0.00;0.00;;;;;;;;;;4956935;28;20274;-65
2022/04/16 00:22:55;;;;;;;0.13;0.13;;;;;;;;;;4956817;29;20202;-65
2022/04/16 00:25:23;;;;;;;0.00;0.00;;;;;;;;;;4956625;28;20199;-65
2022/04/16 00:27:50;;;;;;;0.23;0.23;;;;;;;;;;4956770;28;20203;-65
2022/04/16 00:30:18;;;;;;;0.37;0.20;;;;;;;;;;4961217;28;20209;-65
2022/04/16 00:32:45;;;;;;;0.00;0.00;;;;;;;;;;4975700;28;20202;-65
2022/04/16 00:35:15;;;;;;;0.30;0.30;;;;;;;;;;4975448;28;20233;-65
2022/04/16 00:37:42;;;;;;;0.17;0.17;;;;;;;;;;4975704;28;20593;-65
2022/04/16 00:40:12;;;;;;;0.93;0.93;;;;;;;;;;4975647;28;20205;-65
2022/04/16 00:42:39;;;;;;;0.33;0.30;;;;;;;;;;4975629;28;20694;-66
2022/04/16 00:45:08;;;;;;;0.00;0.00;;;;;;;;;;4975559;28;20198;-65
2022/04/16 00:47:36;;;;;;;0.00;0.00;;;;;;;;;;4974863;28;20210;-66
2022/04/16 00:50:04;;;;;;;0.20;0.20;;;;;;;;;;4975424;28;20277;-65
2022/04/16 00:52:31;;;;;;;0.00;0.00;;;;;;;;;;4975282;28;21179;-65
2022/04/16 00:54:59;;;;;;;0.30;0.30;;;;;;;;;;4977219;28;20222;-65
2022/04/16 00:57:28;;;;;;;0.10;0.10;;;;;;;;;;4981649;28;20206;-67
2022/04/16 00:59:56;;;;;;;0.00;0.00;;;;;;;;;;4982554;28;20324;-65
2022/04/16 01:02:23;;;;;;;0.20;0.20;;;;;;;;;;4975459;28;20200;-65
2022/04/16 01:04:50;;;;;;;0.00;0.00;;;;;;;;;;4974314;28;20621;-64
2022/04/16 01:07:23;;;;;;;0.00;0.00;;;;;;;;;;4975102;28;20209;-65
2022/04/16 01:09:50;;;;;;;0.40;0.40;;;;;;;;;;4975049;28;20198;-66
2022/04/16 01:12:18;;;;;;;0.37;0.37;;;;;;;;;;4975063;28;20206;-66
2022/04/16 01:14:47;;;;;;;0.00;0.00;;;;;;;;;;4974755;28;20205;-64
2022/04/16 01:17:15;;;;;;;1.53;1.07;;;;;;;;;;4973660;28;20203;-65
2022/04/16 01:19:43;;;;;;;0.10;0.10;;;;;;;;;;4974978;28;20233;-67
2022/04/16 01:22:12;;;;;;;0.33;0.33;;;;;;;;;;4974492;28;20205;-66
2022/04/16 01:24:43;;;;;;;0.00;0.00;;;;;;;;;;4974998;28;20198;-66
2022/04/16 01:27:11;;;;;;;0.00;0.00;;;;;;;;;;4974486;28;20199;-66
2022/04/16 01:29:40;;;;;;;0.00;0.00;;;;;;;;;;4974608;28;20199;-66
2022/04/16 01:32:09;;;;;;;0.00;0.00;;;;;;;;;;4974886;28;20198;-66
2022/04/16 01:34:37;;;;;;;0.00;0.00;;;;;;;;;;4974637;28;20199;-66
2022/04/16 01:37:04;;;;;;;0.00;0.00;;;;;;;;;;4974639;28;20288;-66
2022/04/16 01:39:32;;;;;;;0.00;0.00;;;;;;;;;;4973516;28;20570;-66
2022/04/16 01:42:01;;;;;;;2.17;0.83;;;;;;;;;;4974162;28;20210;-66
2022/04/16 01:44:30;;;;;;;0.83;0.53;;;;;;;;;;4974230;28;20205;-66
2022/04/16 01:46:57;;;;;;;0.00;0.00;;;;;;;;;;4974291;28;20207;-65
2022/04/16 01:49:26;;;;;;;0.00;0.00;;;;;;;;;;4974130;28;20198;-65
2022/04/16 01:51:54;;;;;;;1.47;1.33;;;;;;;;;;4974301;28;20209;-65
2022/04/16 01:54:22;;;;;;;0.00;0.00;;;;;;;;;;4974187;28;20203;-66
2022/04/16 01:56:49;;;;;;;1.60;1.50;;;;;;;;;;4973140;28;20241;-66
2022/04/16 01:59:18;;;;;;;0.10;0.10;;;;;;;;;;4973843;28;20656;-65
2022/04/16 02:01:45;;;;;;;1.40;1.30;;;;;;;;;;4974145;28;20238;-65
2022/04/16 02:04:12;;;;;;;4.30;1.90;;;;;;;;;;4974117;28;20195;-65
2022/04/16 02:06:40;;;;;;;0.00;0.00;;;;;;;;;;4973984;28;20202;-65
2022/04/16 02:09:07;;;;;;;0.20;0.20;;;;;;;;;;4973901;28;20209;-66
2022/04/16 02:11:34;;;;;;;0.37;0.37;;;;;;;;;;4973756;28;20199;-65
2022/04/16 02:14:02;;;;;;;0.00;0.00;;;;;;;;;;4973445;28;20210;-66
2022/04/16 02:16:32;;;;;;;0.83;0.83;;;;;;;;;;4974005;28;20330;-66
2022/04/16 02:19:00;;;;;;;0.20;0.20;;;;;;;;;;4973828;28;20668;-66
2022/04/16 02:21:30;;;;;;;1.57;1.30;;;;;;;;;;4973525;28;20206;-65
2022/04/16 02:23:58;;;;;;;0.03;0.03;;;;;;;;;;4973662;28;20202;-66
2022/04/16 02:26:26;;;;;;;0.00;0.00;;;;;;;;;;4973878;28;20220;-65
2022/04/16 02:28:53;;;;;;;3.97;0.83;;;;;;;;;;4972813;28;20199;-65
2022/04/16 02:31:23;;;;;;;0.57;0.53;;;;;;;;;;4973521;28;20198;-66
2022/04/16 02:33:52;;;;;;;0.40;0.40;;;;;;;;;;4973541;28;20198;-65
2022/04/16 02:36:20;;;;;;;0.90;0.87;;;;;;;;;;4973324;28;20261;-66
2022/04/16 02:38:47;;;;;;;0.27;0.20;;;;;;;;;;4973392;28;20696;-65
2022/04/16 02:41:15;;;;;;;1.13;1.13;;;;;;;;;;4973165;28;20489;-65
2022/04/16 02:43:42;;;;;;;1.03;0.83;;;;;;;;;;4973270;28;20245;-65
2022/04/16 02:48:56;;;;;;;3.57;2.17;;;;;;;;;;4973329;28;20189;-65
2022/04/16 02:51:24;;;;;;;3.20;1.73;;;;;;;;;;4973189;28;20202;-65
2022/04/16 02:53:51;;;;;;;2.03;1.33;;;;;;;;;;4973837;28;20203;-65
2022/04/16 02:56:19;;;;;;;3.30;2.20;;;;;;;;;;4973183;28;20794;-65
2022/04/16 02:58:46;;;;;;;0.67;0.67;;;;;;;;;;4973235;28;20203;-65
2022/04/16 03:01:15;;;;;;;0.87;0.80;;;;;;;;;;4972842;28;20230;-65
2022/04/16 03:03:42;;;;;;;0.80;0.80;;;;;;;;;;4972634;28;20565;-65
2022/04/16 03:06:11;;;;;;;0.10;0.10;;;;;;;;;;4973185;28;20285;-65
2022/04/16 03:08:38;;;;;;;0.50;0.50;;;;;;;;;;4973347;28;20199;-65
2022/04/16 03:11:06;;;;;;;0.93;0.93;;;;;;;;;;4973234;28;20668;-66
2022/04/16 03:13:34;;;;;;;2.60;2.00;;;;;;;;;;4972889;28;20596;-65
2022/04/16 03:18:46;;;;;;;1.13;1.13;;;;;;;;;;4973250;28;20337;-65
2022/04/16 03:21:16;;;;;;;5.07;3.20;;;;;;;;;;4971994;28;20210;-65
2022/04/16 03:23:43;;;;;;;0.23;0.23;;;;;;;;;;4973159;28;20298;-66
2022/04/16 03:26:10;;;;;;;1.87;1.77;;;;;;;;;;4973021;28;20675;-66
2022/04/16 03:28:38;;;;;;;0.63;0.63;;;;;;;;;;4972866;28;20213;-66
2022/04/16 03:31:06;;;;;;;1.47;1.37;;;;;;;;;;4973252;28;20199;-66
2022/04/16 03:33:33;;;;;;;2.00;1.37;;;;;;;;;;4973099;28;20293;-66
2022/04/16 03:36:01;;;;;;;5.20;3.43;;;;;;;;;;4972873;28;20226;-65
2022/04/16 03:38:31;;;;;;;0.93;0.87;;;;;;;;;;4972235;28;20207;-65
2022/04/16 03:40:58;;;;;;;2.30;1.57;;;;;;;;;;4973562;28;20305;-66
2022/04/16 03:43:29;;;;;;;3.77;2.20;;;;;;;;;;4976684;28;20573;-66
2022/04/16 03:45:58;;;;;;;0.00;0.00;;;;;;;;;;4976716;28;20695;-65
2022/04/16 03:48:26;;;;;;;0.30;0.30;;;;;;;;;;4976589;28;20202;-66
2022/04/16 03:50:53;;;;;;;0.80;0.80;;;;;;;;;;4976516;28;20222;-65
2022/04/16 03:53:21;;;;;;;0.43;0.43;;;;;;;;;;4976482;28;20205;-65
2022/04/16 04:01:20;;;;;;;1.67;1.17;;;;;;;;;;4976444;28;20271;-65
2022/04/16 04:03:48;;;;;;;0.47;0.47;;;;;;;;;;4976197;28;20568;-66
2022/04/16 04:06:15;;;;;;;3.20;2.30;;;;;;;;;;4976037;28;20294;-66
2022/04/16 04:08:42;;;;;;;1.30;0.93;;;;;;;;;;4976200;28;20194;-67
2022/04/16 04:11:11;;;;;;;0.47;0.30;;;;;;;;;;4975341;28;20290;-66
2022/04/16 04:13:38;;;;;;;1.07;1.07;;;;;;;;;;4976147;28;20198;-65
2022/04/16 04:16:06;;;;;;;3.77;2.97;;;;;;;;;;4976081;28;20226;-66
2022/04/16 04:18:33;;;;;;;0.33;0.33;;;;;;;;;;4976142;28;20206;-65
2022/04/16 04:21:00;;;;;;;1.00;1.00;;;;;;;;;;4975821;28;20202;-64
2022/04/16 04:23:28;;;;;;;0.10;0.10;;;;;;;;;;4975655;28;20199;-64
2022/04/16 04:25:56;;;;;;;1.40;1.40;;;;;;;;;;4976175;28;20281;-65
2022/04/16 04:28:25;;;;;;;0.50;0.50;;;;;;;;;;4975197;28;20207;-65
2022/04/16 04:30:52;;;;;;;1.13;0.47;;;;;;;;;;4975711;28;20676;-65
2022/04/16 04:33:19;;;;;;;1.23;1.17;;;;;;;;;;4975313;28;20213;-65
2022/04/16 04:35:47;;;;;;;0.10;0.10;;;;;;;;;;4975580;28;20202;-65
2022/04/16 04:38:14;;;;;;;0.33;0.33;;;;;;;;;;4975590;28;20241;-66
2022/04/16 04:40:41;;;;;;;0.40;0.40;;;;;;;;;;4975824;28;20202;-65
2022/04/16 04:43:08;;;;;;;0.20;0.20;;;;;;;;;;4975495;28;20203;-65
2022/04/16 04:45:38;;;;;;;0.53;0.53;;;;;;;;;;4974674;28;20203;-65
2022/04/16 04:48:06;;;;;;;1.50;1.40;;;;;;;;;;4975689;28;20222;-65
2022/04/16 04:50:36;;;;;;;0.77;0.77;;;;;;;;;;4975423;28;20198;-65
2022/04/16 04:53:03;;;;;;;0.00;0.00;;;;;;;;;;4975184;28;20195;-65
2022/04/16 04:55:31;;;;;;;0.20;0.20;;;;;;;;;;4975016;28;20198;-65
2022/04/16 04:57:58;;;;;;;2.07;1.03;;;;;;;;;;4975281;28;20238;-65
2022/04/16 05:00:25;;;;;;;0.87;0.87;;;;;;;;;;4975018;28;20786;-65
2022/04/16 05:02:54;;;;;;;0.00;0.00;;;;;;;;;;4974650;28;20290;-65
2022/04/16 05:05:21;;;;;;;0.90;0.77;;;;;;;;;;4974983;28;20205;-65
2022/04/16 05:07:49;;;;;;;0.30;0.27;;;;;;;;;;4975176;28;20206;-65
2022/04/16 05:10:16;;;;;;;0.63;0.63;;;;;;;;;;4975101;28;20551;-65
2022/04/16 05:12:43;;;;;;;3.13;2.93;;;;;;;;;;4974856;28;20198;-65
2022/04/16 05:15:11;;;;;;;1.60;1.50;;;;;;;;;;4974986;28;20198;-65
2022/04/16 05:17:40;;;;;;;0.30;0.30;;;;;;;;;;4974851;28;20703;-65
2022/04/16 05:20:10;;;;;;;2.17;2.00;;;;;;;;;;4974169;28;20690;-65
2022/04/16 05:22:38;;;;;;;0.43;0.33;;;;;;;;;;4974960;28;20229;-65
2022/04/16 05:25:05;;;;;;;0.57;0.57;;;;;;;;;;4975268;28;20277;-65
2022/04/16 05:27:34;;;;;;;2.10;1.80;;;;;;;;;;4974740;28;20202;-65
2022/04/16 05:30:13;;;;;;;1.83;1.63;;;;;;;;;;4974629;28;20194;-66
2022/04/16 05:32:42;;;;;;;2.53;2.33;;;;;;;;;;4974640;28;20549;-65
2022/04/16 05:35:12;;;;;;;5.77;4.17;;;;;;;;;;4974135;28;20626;-65
2022/04/16 05:37:40;;;;;;;0.63;0.63;;;;;;;;;;4973801;28;20229;-65
2022/04/16 05:40:08;;;;;;;2.37;1.43;;;;;;;;;;4974614;28;20615;-65
2022/04/16 05:42:40;;;;;;;0.93;0.77;;;;;;;;;;4976882;28;20549;-65
2022/04/16 05:45:08;;;;;;;1.03;1.00;;;;;;;;;;4980481;28;20198;-65
2022/04/16 05:47:36;;;;;;;4.17;3.57;;;;;;;;;;4979610;28;20726;-65
2022/04/16 05:50:04;;;;;;;4.63;3.17;;;;;;;;;;4974279;28;20194;-65
2022/04/16 05:52:33;;;;;;;1.50;1.43;;;;;;;;;;4974165;28;20209;-65
2022/04/16 05:55:01;;;;;;;1.73;1.63;;;;;;;;;;4973646;28;20218;-65
2022/04/16 05:57:29;;;;;;;1.97;1.73;;;;;;;;;;4974040;28;20234;-65
2022/04/16 05:59:56;;;;;;;1.20;1.13;;;;;;;;;;4974194;28;20242;-64
2022/04/16 06:02:24;;;;;;;4.00;2.93;;;;;;;;;;4973957;28;20204;-67
2022/04/16 06:04:52;;;;;;;1.10;1.00;;;;;;;;;;4973636;28;20205;-65
2022/04/16 06:07:19;;;;;;;4.97;4.30;;;;;;;;;;4973977;28;20273;-65
2022/04/16 06:09:48;;;;;;;2.80;2.57;;;;;;;;;;4973417;28;20195;-65
2022/04/16 06:12:16;;;;;;;2.40;1.80;;;;;;;;;;4973929;28;20209;-66
2022/04/16 06:14:43;;;;;;;4.37;2.83;;;;;;;;;;4973887;28;20198;-66
2022/04/16 06:17:10;;;;;;;1.50;1.40;;;;;;;;;;4973467;28;20237;-66
2022/04/16 06:19:38;;;;;;;0.33;0.20;;;;;;;;;;4973704;28;20684;-65
2022/04/16 06:22:05;;;;;;;3.00;2.03;;;;;;;;;;4974109;28;20263;-65
2022/04/16 06:24:33;;;;;;;1.33;1.23;;;;;;;;;;4973723;28;20728;-65
2022/04/16 06:27:02;;;;;;;1.37;0.23;;;;;;;;;;4973017;28;20213;-65
2022/04/16 06:29:29;;;;;;;2.37;2.17;;;;;;;;;;4973410;28;20290;-66
2022/04/16 06:31:57;;;;;;;0.83;0.77;;;;;;;;;;4973707;28;20559;-65
2022/04/16 06:34:24;;;;;;;2.33;1.30;;;;;;;;;;4973767;28;20199;-65
2022/04/16 06:36:52;;;;;;;3.00;0.97;;;;;;;;;;4973358;28;20748;-66
2022/04/16 06:39:19;;;;;;;2.90;1.73;;;;;;;;;;4973097;28;20191;-65
2022/04/16 06:41:46;;;;;;;0.73;0.50;;;;;;;;;;4973487;28;20743;-64
2022/04/16 06:44:15;;;;;;;2.03;1.83;;;;;;;;;;4972546;28;20659;-66
2022/04/16 06:46:42;;;;;;;4.93;4.07;;;;;;;;;;4973362;28;20198;-64
2022/04/16 06:49:10;;;;;;;1.03;1.03;;;;;;;;;;4973169;28;20203;-64
2022/04/16 06:51:37;;;;;;;2.50;2.17;;;;;;;;;;4973309;28;20202;-65
2022/04/16 06:54:04;;;;;;;2.60;2.13;;;;;;;;;;4973138;28;20195;-64
2022/04/16 06:56:32;;;;;;;8.43;4.73;;;;;;;;;;4973241;28;20214;-64
2022/04/16 06:59:00;;;;;;;1.23;1.17;;;;;;;;;;4973162;28;20560;-65
2022/04/16 07:01:29;;;;;;;0.93;0.93;;;;;;;;;;4972178;28;20261;-65
2022/04/16 07:03:56;;;;;;;3.43;2.40;;;;;;;;;;4973435;28;20206;-65
2022/04/16 07:06:23;;;;;;;0.33;0.33;;;;;;;;;;4973509;28;20209;-65
2022/04/16 07:08:52;;;;;;;5.90;4.63;;;;;;;;;;4973118;28;20198;-65
2022/04/16 07:11:19;;;;;;;2.50;1.10;;;;;;;;;;4972864;28;20213;-65
2022/04/16 07:13:47;;;;;;;1.87;1.43;;;;;;;;;;4973217;28;20202;-65
2022/04/16 07:16:14;;;;;;;2.83;2.63;;;;;;;;;;4976166;28;20203;-65
2022/04/16 07:18:43;;;;;;;1.67;0.87;;;;;;;;;;4976212;28;20238;-65
2022/04/16 07:21:11;;;;;;;5.60;3.60;;;;;;;;;;4976705;28;20202;-65
2022/04/16 07:23:38;;;;;;;2.10;1.87;;;;;;;;;;4976650;28;20566;-65
2022/04/16 07:26:05;;;;;;;1.20;0.73;;;;;;;;;;4976479;28;20586;-65
2022/04/16 07:28:33;;;;;;;5.33;3.97;;;;;;;;;;4976748;28;20233;-65
2022/04/16 07:31:00;;;;;;;3.33;2.77;;;;;;;;;;4976597;28;20297;-65
2022/04/16 07:33:30;;;;;;;0.20;0.20;;;;;;;;;;4976350;28;20202;-65
2022/04/16 07:35:59;;;;;;;3.60;2.60;;;;;;;;;;4975711;28;20210;-65
2022/04/16 07:38:27;;;;;;;2.37;1.73;;;;;;;;;;4976328;28;20230;-66
2022/04/16 07:40:55;;;;;;;2.03;1.50;;;;;;;;;;4976713;28;20269;-65
2022/04/16 07:43:22;;;;;;;2.43;2.23;;;;;;;;;;4976097;28;20206;-66
2022/04/16 07:45:50;;;;;;;1.37;1.27;;;;;;;;;;4976236;28;20205;-66
2022/04/16 07:48:17;;;;;;;2.03;1.83;;;;;;;;;;4976351;28;20201;-66
2022/04/16 07:50:44;;;;;;;1.60;1.30;;;;;;;;;;4976347;28;20656;-65
2022/04/16 07:53:13;;;;;;;1.37;0.93;;;;;;;;;;4975598;28;20202;-66
2022/04/16 07:55:41;;;;;;;0.63;0.63;;;;;;;;;;4976417;28;20202;-65
2022/04/16 07:58:08;;;;;;;1.67;1.57;;;;;;;;;;4976384;28;20237;-66
2022/04/16 08:00:36;;;;;;;1.13;1.13;;;;;;;;;;4976257;28;20234;-65
2022/04/16 08:03:03;;;;;;;2.00;1.53;;;;;;;;;;4976070;28;20202;-66
2022/04/16 08:05:30;;;;;;;3.30;2.03;;;;;;;;;;4975765;28;20206;-65
2022/04/16 08:07:58;;;;;;;1.83;1.13;;;;;;;;;;4976080;28;20213;-66
2022/04/16 08:10:27;;;;;;;0.00;0.00;;;;;;;;;;4975378;28;20240;-66
2022/04/16 08:12:54;;;;;;;0.00;0.00;;;;;;;;;;4975858;28;20285;-65
2022/04/16 08:15:21;;;;;;;2.42;2.22;;;;;;;;;;4975556;28;20202;-65
2022/04/16 08:17:49;;;;;;;2.53;1.90;;;;;;;;;;4975664;28;20230;-65
2022/04/16 08:20:16;;;;;;;2.70;2.45;;;;;;;;;;4975823;28;20569;-67
2022/04/16 08:22:46;;;;;;;1.23;1.13;;;;;;;;;;4976087;28;20293;-65
2022/04/16 08:28:00;;;;;;;0.52;0.52;;;;;;;;;;4974595;28;20261;-65
2022/04/16 08:30:28;;;;;;;1.15;1.05;;;;;;;;;;4975628;28;20202;-65
2022/04/16 08:32:55;;;;;;;2.72;2.60;;;;;;;;;;4975573;28;20205;-65
2022/04/16 08:35:22;;;;;;;4.25;2.90;;;;;;;;;;4975388;28;20565;-65
2022/04/16 08:37:50;;;;;;;2.92;2.45;;;;;;;;;;4975771;28;20317;-65
2022/04/16 08:40:18;;;;;;;0.30;0.30;;;;;;;;;;4975773;28;20199;-65
2022/04/16 08:42:48;;;;;;;0.88;0.77;;;;;;;;;;4974637;28;20256;-65
2022/04/16 08:45:18;;;;;;;1.52;1.42;;;;;;;;;;4975601;28;20573;-65
2022/04/16 08:47:45;;;;;;;5.28;2.97;;;;;;;;;;4975347;28;20198;-65
2022/04/16 08:50:13;;;;;;;0.40;0.17;;;;;;;;;;4975512;28;20206;-65
2022/04/16 08:52:41;;;;;;;0.93;0.93;;;;;;;;;;4975404;28;20664;-65
2022/04/16 08:55:10;;;;;;;0.13;0.13;;;;;;;;;;4975392;28;20194;-65
2022/04/16 08:57:39;;;;;;;3.03;1.85;;;;;;;;;;4975070;28;20230;-65
2022/04/16 09:00:07;;;;;;;0.08;0.08;;;;;;;;;;4974295;28;20245;-65
2022/04/16 09:02:36;;;;;;;0.65;0.65;;;;;;;;;;4975262;28;20296;-65
2022/04/16 09:05:05;;;;;;;0.98;0.98;;;;;;;;;;4975096;28;20202;-66
2022/04/16 09:07:33;;;;;;;0.85;0.75;;;;;;;;;;4974802;28;20620;-65
2022/04/16 09:10:07;;;;;;;3.38;2.35;;;;;;;;;;4975013;28;20202;-65
2022/04/16 09:12:38;;;;;;;1.52;1.30;;;;;;;;;;4975229;28;20242;-64
2022/04/16 09:15:08;;;;;;;4.05;2.40;;;;;;;;;;4974909;28;20202;-65
2022/04/16 09:17:37;;;;;;;1.63;1.52;;;;;;;;;;4974356;28;20245;-65
2022/04/16 09:20:10;;;;;;;0.73;0.73;;;;;;;;;;4974891;28;20206;-67
2022/04/16 09:22:38;;;;;;;2.42;1.77;;;;;;;;;;4974645;28;20206;-66
2022/04/16 09:25:14;;;;;;;3.10;2.90;;;;;;;;;;4975004;28;20198;-65
2022/04/16 09:27:42;;;;;;;3.22;2.38;;;;;;;;;;4974701;28;20208;-64
2022/04/16 09:30:10;;;;;;;0.00;0.00;;;;;;;;;;4974535;28;20289;-66
2022/04/16 09:32:45;;;;;;;0.55;0.55;;;;;;;;;;4974619;28;20198;-66
2022/04/16 09:35:28;;;;;;;2.17;1.48;;;;;;;;;;4973184;28;20204;-65
2022/04/16 09:37:57;;;;;;;1.50;1.40;;;;;;;;;;4973954;28;20222;-65
2022/04/16 09:40:26;;;;;;;0.43;0.43;;;;;;;;;;4973984;28;20210;-65
2022/04/16 09:42:54;;;;;;;0.98;0.80;;;;;;;;;;4974432;28;20238;-65
2022/04/16 09:45:21;;;;;;;5.47;3.65;;;;;;;;;;4974512;28;20202;-65
2022/04/16 09:47:51;;;;;;;2.13;2.03;;;;;;;;;;4974144;28;20201;-65
2022/04/16 09:50:19;;;;;;;4.03;2.05;;;;;;;;;;4974260;28;20722;-65
2022/04/16 09:52:51;;;;;;;2.47;1.95;;;;;;;;;;4973769;28;20627;-65
2022/04/16 09:55:21;;;;;;;0.70;0.70;;;;;;;;;;4974067;28;20202;-65
2022/04/16 09:57:50;;;;;;;0.00;0.00;;;;;;;;;;4974145;28;20280;-66
2022/04/16 10:00:18;;;;;;;1.15;0.93;;;;;;;;;;4973924;28;20237;-66
2022/04/16 10:02:46;;;;;;;1.50;1.30;;;;;;;;;;4973943;28;20730;-66
2022/04/16 10:05:15;;;;;;;3.13;1.55;;;;;;;;;;4973858;28;20202;-65
2022/04/16 10:07:44;;;;;;;0.73;0.73;;;;;;;;;;4973796;28;20286;-65
2022/04/16 10:10:25;;;;;;;2.03;1.85;;;;;;;;;;4954551;28;20672;-65
2022/04/16 10:13:01;;;;;;;2.75;1.92;;;;;;;;;;4954747;29;20209;-66
2022/04/16 10:15:34;;;;;;;0.20;0.20;;;;;;;;;;4954721;29;20230;-65
2022/04/16 10:18:02;;;;;;;3.42;2.63;;;;;;;;;;4954216;29;20230;-65
2022/04/16 10:20:31;;;;;;;4.55;4.15;;;;;;;;;;4954612;29;20199;-66
2022/04/16 10:22:59;;;;;;;0.00;0.00;;;;;;;;;;4954509;29;20257;-66
2022/04/16 10:25:34;;;;;;;1.30;1.10;;;;;;;;;;4960558;28;20241;-66
2022/04/16 10:28:02;;;;;;;0.15;0.15;;;;;;;;;;4973828;28;20292;-66
2022/04/16 10:30:37;;;;;;;1.45;1.35;;;;;;;;;;4973765;28;20206;-66
2022/04/16 10:33:16;;;;;;;0.57;0.52;;;;;;;;;;4973658;28;20555;-66
2022/04/16 10:35:51;;;;;;;1.02;0.73;;;;;;;;;;4973297;28;20202;-66
2022/04/16 10:38:26;;;;;;;2.33;2.10;;;;;;;;;;4973401;28;20717;-67
2022/04/16 10:40:57;;;;;;;0.57;0.57;;;;;;;;;;4954789;29;20253;-65
2022/04/16 10:43:29;;;;;;;0.82;0.82;;;;;;;;;;4967358;28;20233;-66
2022/04/16 10:46:04;;;;;;;0.10;0.10;;;;;;;;;;4973192;28;20326;-66
2022/04/16 10:48:34;;;;;;;0.85;0.85;;;;;;;;;;4973670;28;20198;-66
2022/04/16 10:51:03;;;;;;;0.55;0.55;;;;;;;;;;4973056;28;20289;-66
2022/04/16 10:53:34;;;;;;;0.77;0.77;;;;;;;;;;4973236;28;20217;-66
2022/04/16 10:56:12;;;;;;;1.35;0.98;;;;;;;;;;4973382;28;20225;-65
2022/04/16 10:58:40;;;;;;;0.17;0.17;;;;;;;;;;4972777;28;20621;-66
2022/04/16 11:01:09;;;;;;;1.23;1.13;;;;;;;;;;4972905;28;20711;-66
2022/04/16 11:03:44;;;;;;;0.10;0.10;;;;;;;;;;4973218;28;20204;-66
2022/04/16 11:06:12;;;;;;;0.77;0.70;;;;;;;;;;4973140;28;20221;-66
2022/04/16 11:08:41;;;;;;;1.35;0.93;;;;;;;;;;4973036;28;20739;-66
2022/04/16 11:11:09;;;;;;;1.25;0.88;;;;;;;;;;4973057;28;20202;-66
2022/04/16 11:13:37;;;;;;;3.20;0.93;;;;;;;;;;4973351;28;20253;-66
2022/04/16 11:16:05;;;;;;;0.98;0.80;;;;;;;;;;4972523;28;20214;-66
2022/04/16 11:18:41;;;;;;;2.35;1.27;;;;;;;;;;4972983;28;20707;-65
2022/04/16 11:21:10;;;;;;;0.00;0.00;;;;;;;;;;4973259;28;20230;-66
2022/04/16 11:23:43;;;;;;;1.42;1.13;;;;;;;;;;4973233;28;20202;-65
2022/04/16 11:34:30;;;;;;;1.67;0.90;;;;;;;;;;4972120;28;20217;-65
2022/04/16 11:36:59;;;;;;;1.70;1.35;;;;;;;;;;4973150;28;20195;-65
2022/04/16 11:39:28;;;;;;;1.17;1.08;;;;;;;;;;4972498;28;20707;-65
2022/04/16 11:41:56;;;;;;;4.05;1.38;;;;;;;;;;4972804;28;20289;-65
2022/04/16 11:44:38;;;;;;;1.13;1.02;;;;;;;;;;4972998;28;20187;-65
2022/04/16 11:47:08;;;;;;;0.75;0.65;;;;;;;;;;4972922;28;20633;-65
2022/04/16 11:49:36;;;;;;;0.68;0.68;;;;;;;;;;4972904;28;20214;-65
2022/04/16 11:52:03;;;;;;;4.18;1.48;;;;;;;;;;4972014;28;20217;-66
2022/04/16 11:54:33;;;;;;;0.95;0.20;;;;;;;;;;4972663;28;20664;-65
2022/04/16 11:57:00;;;;;;;2.20;1.55;;;;;;;;;;4972598;28;20202;-65
2022/04/16 11:59:28;;;;;;;1.33;1.23;;;;;;;;;;4972272;28;20706;-65
2022/04/16 12:02:06;;;;;;;0.35;0.32;;;;;;;;;;4973633;28;20220;-65
2022/04/16 12:04:40;;;;;;;0.80;0.80;;;;;;;;;;4976313;28;20294;-66
2022/04/16 12:07:15;;;;;;;0.20;0.15;;;;;;;;;;4975505;28;20296;-66
2022/04/16 12:09:48;;;;;;;1.38;1.27;;;;;;;;;;4976216;28;20586;-66
2022/04/16 12:12:17;;;;;;;1.42;1.25;;;;;;;;;;4976094;28;20218;-66
2022/04/16 12:14:48;;;;;;;0.75;0.75;;;;;;;;;;4976209;28;20201;-67
2022/04/16 12:17:24;;;;;;;1.25;1.15;;;;;;;;;;4975925;28;20356;-66
2022/04/16 12:20:06;;;;;;;0.63;0.63;;;;;;;;;;4975820;28;20229;-65
2022/04/16 12:22:34;;;;;;;3.40;2.20;;;;;;;;;;4974545;28;20250;-66
2022/04/16 12:25:12;;;;;;;0.98;0.98;;;;;;;;;;4975140;28;20581;-65
2022/04/16 12:27:45;;;;;;;0.82;0.82;;;;;;;;;;4975869;28;20206;-66
2022/04/16 12:30:13;;;;;;;0.50;0.50;;;;;;;;;;4975693;28;20198;-66
2022/04/16 12:32:41;;;;;;;1.02;1.02;;;;;;;;;;4975802;28;20209;-65
2022/04/16 12:35:08;;;;;;;5.53;1.98;;;;;;;;;;4975911;28;20198;-65
2022/04/16 12:37:36;;;;;;;0.20;0.20;;;;;;;;;;4975574;28;20210;-66
2022/04/16 12:40:03;;;;;;;1.45;1.35;;;;;;;;;;4975636;28;20308;-66
2022/04/16 12:42:33;;;;;;;2.13;1.73;;;;;;;;;;4974807;28;20296;-66
2022/04/16 12:45:00;;;;;;;1.77;1.40;;;;;;;;;;4975564;28;20198;-65
2022/04/16 12:47:28;;;;;;;8.15;1.90;;;;;;;;;;4975438;28;20571;-65
2022/04/16 12:49:55;;;;;;;0.00;0.00;;;;;;;;;;4975639;28;20234;-66
2022/04/16 12:52:24;;;;;;;1.20;0.82;;;;;;;;;;4975541;28;20198;-66
2022/04/16 12:54:51;;;;;;;0.70;0.57;;;;;;;;;;4975285;28;20202;-67
2022/04/16 12:57:19;;;;;;;0.32;0.32;;;;;;;;;;4975158;28;20285;-66
2022/04/16 12:59:48;;;;;;;1.50;1.00;;;;;;;;;;4974426;28;20238;-66
2022/04/16 13:02:15;;;;;;;0.70;0.60;;;;;;;;;;4975199;28;20225;-66
2022/04/16 13:04:42;;;;;;;2.70;1.85;;;;;;;;;;4975290;28;20289;-66
2022/04/16 13:07:10;;;;;;;2.75;1.33;;;;;;;;;;4974934;28;20203;-66
2022/04/16 13:09:37;;;;;;;1.58;1.48;;;;;;;;;;4975088;28;20198;-65
2022/04/16 13:12:05;;;;;;;0.40;0.40;;;;;;;;;;4974935;28;20690;-66
2022/04/16 13:14:32;;;;;;;1.00;0.95;;;;;;;;;;4975154;28;20631;-66
2022/04/16 13:17:02;;;;;;;5.20;0.65;;;;;;;;;;4974091;28;20541;-66
2022/04/16 13:19:30;;;;;;;0.35;0.25;;;;;;;;;;4974592;28;20321;-67
2022/04/16 13:21:57;;;;;;;2.38;1.27;;;;;;;;;;4974840;28;20202;-66
2022/04/16 13:24:25;;;;;;;0.10;0.10;;;;;;;;;;4974695;28;20210;-67
2022/04/16 13:26:53;;;;;;;5.05;1.23;;;;;;;;;;4975019;28;20202;-66
2022/04/16 13:29:20;;;;;;;1.55;1.17;;;;;;;;;;4974512;28;20733;-67
2022/04/16 13:31:48;;;;;;;0.75;0.75;;;;;;;;;;4973822;28;20205;-66
2022/04/16 13:34:17;;;;;;;1.52;1.40;;;;;;;;;;4974660;28;20201;-66
2022/04/16 13:36:45;;;;;;;1.27;1.17;;;;;;;;;;4974394;28;20202;-65
2022/04/16 13:41:38;;;;;;;1.67;1.58;;;;;;;;;;4974079;28;20324;-65
2022/04/16 13:41:59;;;;;;;2.55;2.13;;;;;;;;;;4974557;28;20599;-65
2022/04/16 13:44:27;;;;;;;0.60;0.60;;;;;;;;;;4974498;28;20663;-65
2022/04/16 13:46:55;;;;;;;0.55;0.43;;;;;;;;;;4974200;28;20254;-65
2022/04/16 13:49:25;;;;;;;1.25;1.08;;;;;;;;;;4973289;28;20743;-65
2022/04/16 13:51:52;;;;;;;0.88;0.88;;;;;;;;;;4974491;28;20202;-66
2022/04/16 13:54:20;;;;;;;0.52;0.40;;;;;;;;;;4974251;28;20297;-66
2022/04/16 13:56:47;;;;;;;0.28;0.28;;;;;;;;;;4974260;28;20198;-65
2022/04/16 14:01:57;;;;;;;1.40;1.13;;;;;;;;;;4933266;29;20213;-66
2022/04/16 14:05:42;;;;;;;2.38;2.08;;;;;;;;;;4933513;29;20204;-66
2022/04/16 14:07:13;;;;;;;0.45;0.45;;;;;;;;;;4932259;29;20203;-66
2022/04/16 14:09:41;;;;;;;0.77;0.77;;;;;;;;;;4933509;29;20210;-66
2022/04/16 14:12:08;;;;;;;1.65;1.23;;;;;;;;;;4933315;29;20323;-65
2022/04/16 14:14:36;;;;;;;0.20;0.20;;;;;;;;;;4933143;29;20203;-65
2022/04/16 14:17:03;;;;;;;0.30;0.30;;;;;;;;;;4933284;29;20214;-65
2022/04/16 14:19:32;;;;;;;0.25;0.25;;;;;;;;;;4932853;29;20326;-66
2022/04/16 14:22:00;;;;;;;1.10;0.28;;;;;;;;;;4933228;29;20251;-66
2022/04/16 14:24:27;;;;;;;1.08;0.98;;;;;;;;;;4931782;29;20247;-65
2022/04/16 14:26:55;;;;;;;3.42;2.20;;;;;;;;;;4933038;29;20206;-66
2022/04/16 14:29:22;;;;;;;0.60;0.60;;;;;;;;;;4932839;29;20206;-66
2022/04/16 14:31:50;;;;;;;1.85;0.90;;;;;;;;;;4936365;28;20381;-65
2022/04/16 14:34:18;;;;;;;0.95;0.95;;;;;;;;;;4973554;28;20206;-65
2022/04/16 14:36:47;;;;;;;2.58;2.17;;;;;;;;;;4973693;28;20205;-65
2022/04/16 14:39:15;;;;;;;1.05;0.68;;;;;;;;;;4973027;28;20207;-66
2022/04/16 14:41:45;;;;;;;1.52;1.42;;;;;;;;;;4972747;28;20212;-65
2022/04/16 14:44:12;;;;;;;1.95;1.25;;;;;;;;;;4973608;28;20198;-65
2022/04/16 14:46:40;;;;;;;1.75;1.13;;;;;;;;;;4973506;28;20614;-65
2022/04/16 14:49:10;;;;;;;0.52;0.52;;;;;;;;;;4973267;28;20198;-66
2022/04/16 14:51:40;;;;;;;0.35;0.35;;;;;;;;;;4973306;28;20206;-66
2022/04/16 14:54:08;;;;;;;1.42;1.00;;;;;;;;;;4973462;28;20264;-67
2022/04/16 14:56:36;;;;;;;1.20;0.63;;;;;;;;;;4973470;28;20269;-65
2022/04/16 14:59:04;;;;;;;1.05;0.95;;;;;;;;;;4972974;28;20249;-67
2022/04/16 15:01:31;;;;;;;0.85;0.52;;;;;;;;;;4972796;28;20599;-66
2022/04/16 15:03:58;;;;;;;2.25;0.93;;;;;;;;;;4973054;28;20301;-66
2022/04/16 15:06:26;;;;;;;1.27;1.05;;;;;;;;;;4972935;28;20229;-67
2022/04/16 15:08:54;;;;;;;1.35;1.13;;;;;;;;;;4973350;28;20206;-66
2022/04/16 15:11:23;;;;;;;1.45;0.98;;;;;;;;;;4973029;28;20208;-66
2022/04/16 15:13:50;;;;;;;0.20;0.20;;;;;;;;;;4972605;28;20198;-66
2022/04/16 15:16:17;;;;;;;1.75;1.48;;;;;;;;;;4973094;28;20206;-66